Time;durP1;ratioP1;P1;durP2;ratioP2;P2;SDS_P1;SDS_P2;PMS_P1;PMS_P2;Temp;Humidity;BMP_temperature;BMP_pressure;BME280_temperature;BME280_humidity;BME280_pressure;Samples;Min_cycle;Max_cycle;Signal;HPM_P1;HPM_P2
2023/01/16 00:00:18;;;;;;;0.70;0.53;;;;;;;-144.22;100.00;60274.75;6245968;28;20696;-44
2023/01/16 00:03:21;;;;;;;1.80;0.60;;;;;;;-144.22;100.00;60274.75;6246056;28;20242;-44
2023/01/16 00:06:23;;;;;;;0.53;0.33;;;;;;;188.01;100.00;60274.75;6244515;28;20304;-44
2023/01/16 00:09:28;;;;;;;0.37;0.37;;;;;;;-144.22;100.00;60274.75;6248992;28;20725;-44
2023/01/16 00:12:30;;;;;;;0.30;0.30;;;;;;;-144.22;100.00;60274.75;6251241;28;20234;-43
2023/01/16 00:15:33;;;;;;;0.80;0.50;;;;;;;188.01;100.00;60274.75;6248491;28;20227;-43
2023/01/16 00:18:35;;;;;;;0.30;0.30;;;;;;;-144.22;100.00;60274.75;6248882;28;20522;-44
2023/01/16 00:21:37;;;;;;;0.67;0.40;;;;;;;-144.22;100.00;60274.75;6247341;28;20226;-43
2023/01/16 00:24:39;;;;;;;1.30;0.27;;;;;;;-144.22;100.00;60274.75;6246949;28;20225;-44
2023/01/16 00:27:41;;;;;;;1.33;0.53;;;;;;;-144.22;100.00;60274.75;6245561;28;20853;-43
2023/01/16 00:30:45;;;;;;;0.50;0.30;;;;;;;-144.22;100.00;60274.75;6246859;28;20307;-44
2023/01/16 00:33:47;;;;;;;0.93;0.80;;;;;;;-144.22;100.00;60274.75;6243289;28;20240;-44
2023/01/16 00:36:49;;;;;;;1.13;0.40;;;;;;;3.20;100.00;103558.78;6244134;28;20699;-43
2023/01/16 00:39:52;;;;;;;1.23;0.47;;;;;;;-144.22;100.00;60274.75;6243808;28;20311;-43
2023/01/16 00:42:54;;;;;;;1.63;0.47;;;;;;;-144.22;100.00;60274.75;6247065;28;20229;-45
2023/01/16 00:45:56;;;;;;;0.60;0.47;;;;;;;-144.22;100.00;60274.75;6245378;28;20751;-44
2023/01/16 00:48:59;;;;;;;0.60;0.50;;;;;;;188.01;100.00;60274.75;6243094;28;20235;-46
2023/01/16 00:52:03;;;;;;;1.03;0.80;;;;;;;-144.22;100.00;60274.75;6244665;28;20262;-43
2023/01/16 00:55:06;;;;;;;0.77;0.40;;;;;;;-144.22;100.00;60274.75;6243943;28;21100;-44
2023/01/16 00:58:09;;;;;;;2.20;0.53;;;;;;;-144.22;100.00;60274.75;6244691;28;20684;-44
2023/01/16 01:01:11;;;;;;;1.63;0.47;;;;;;;-144.22;100.00;60274.75;6228928;28;20372;-44
2023/01/16 01:04:16;;;;;;;0.33;0.30;;;;;;;188.01;100.00;60274.75;6248425;28;20233;-44
2023/01/16 01:07:18;;;;;;;1.60;0.20;;;;;;;-144.22;100.00;60274.75;6241338;28;20249;-44
2023/01/16 01:10:21;;;;;;;1.00;0.50;;;;;;;-144.22;100.00;60274.75;6245620;28;20247;-43
2023/01/16 01:13:24;;;;;;;0.77;0.30;;;;;;;-144.22;100.00;60274.75;6243050;28;20244;-44
2023/01/16 01:16:27;;;;;;;0.50;0.40;;;;;;;-144.22;100.00;60274.75;6240613;28;20227;-44
2023/01/16 01:19:30;;;;;;;1.23;0.30;;;;;;;-144.22;100.00;60274.75;6243424;28;20624;-44
2023/01/16 01:22:32;;;;;;;0.30;0.30;;;;;;;188.01;100.00;60274.75;6243540;28;20226;-44
2023/01/16 01:25:37;;;;;;;1.53;0.30;;;;;;;11.36;100.00;60274.75;6240140;28;21021;-44
2023/01/16 01:28:40;;;;;;;0.40;0.40;;;;;;;-144.22;100.00;60274.75;6244119;28;20218;-43
2023/01/16 01:31:42;;;;;;;0.93;0.27;;;;;;;-144.22;100.00;60274.75;6242521;28;20265;-44
2023/01/16 01:34:44;;;;;;;0.87;0.23;;;;;;;177.61;100.00;60274.75;6243651;28;20234;-43
2023/01/16 01:37:46;;;;;;;0.47;0.23;;;;;;;188.01;100.00;60274.75;6243965;28;20402;-43
2023/01/16 01:40:48;;;;;;;2.60;0.30;;;;;;;188.01;100.00;60274.75;6246133;28;20234;-43
2023/01/16 01:43:57;;;;;;;0.20;0.20;;;;;;;188.01;100.00;60274.75;6246070;28;20351;-44
2023/01/16 01:46:59;;;;;;;0.20;0.20;;;;;;;-144.22;100.00;60274.75;6235547;28;20247;-44
2023/01/16 01:50:11;;;;;;;0.43;0.20;;;;;;;-144.22;100.00;60274.75;6244106;28;20241;-43
2023/01/16 01:53:23;;;;;;;0.60;0.27;;;;;;;-144.22;100.00;60274.75;6244097;28;20339;-43
2023/01/16 01:56:36;;;;;;;2.07;0.47;;;;;;;188.01;100.00;60274.75;6246816;28;20235;-44
2023/01/16 01:59:46;;;;;;;0.50;0.50;;;;;;;188.01;100.00;60274.75;6246936;28;20227;-44
2023/01/16 02:03:00;;;;;;;1.33;0.30;;;;;;;2.78;100.00;78112.63;6237383;28;20245;-43
2023/01/16 02:06:13;;;;;;;0.90;0.23;;;;;;;3.58;100.00;60274.75;6244190;28;20237;-43
2023/01/16 02:09:16;;;;;;;0.87;0.53;;;;;;;188.01;100.00;60274.75;6246401;28;20226;-44
2023/01/16 02:12:18;;;;;;;0.30;0.30;;;;;;;21.74;100.00;60274.75;6225994;28;20715;-43
2023/01/16 02:15:23;;;;;;;0.97;0.20;;;;;;;21.74;100.00;60274.75;6239613;28;20321;-44
2023/01/16 02:21:55;;;;;;;0.30;0.30;;;;;;;188.01;100.00;60274.75;6244446;28;20754;-45
2023/01/16 02:25:31;;;;;;;1.23;0.40;;;;;;;-144.22;100.00;60274.75;6238269;28;20279;-46
2023/01/16 02:28:42;;;;;;;0.93;0.40;;;;;;;-144.22;100.00;60274.75;6239854;28;20237;-45
2023/01/16 02:31:58;;;;;;;2.73;0.70;;;;;;;188.01;100.00;60274.75;6238857;28;20575;-44
2023/01/16 02:35:12;;;;;;;1.53;0.83;;;;;;;2.84;100.00;60274.75;6219909;28;20242;-44
2023/01/16 02:38:38;;;;;;;1.30;0.80;;;;;;;-144.22;100.00;60274.75;6242836;28;20604;-44
2023/01/16 02:41:58;;;;;;;2.30;1.27;;;;;;;-144.22;100.00;60274.75;6242835;28;20238;-44
2023/01/16 02:45:41;;;;;;;2.33;1.13;;;;;;;11.36;100.00;60274.75;6246955;28;20250;-44
2023/01/16 02:48:53;;;;;;;2.67;1.40;;;;;;;188.01;100.00;60274.75;6250911;28;20230;-44
2023/01/16 02:52:43;;;;;;;2.53;1.60;;;;;;;2.67;100.00;60274.75;6232181;28;20235;-44
2023/01/16 02:56:08;;;;;;;1.60;1.03;;;;;;;188.01;100.00;60274.75;6158156;28;20285;-44
2023/01/16 02:59:13;;;;;;;1.47;0.93;;;;;;;-144.22;100.00;60274.75;6153639;28;20249;-44
2023/01/16 03:02:15;;;;;;;1.30;1.00;;;;;;;-144.22;100.00;60274.75;6158016;28;20607;-44
2023/01/16 03:05:19;;;;;;;1.37;0.80;;;;;;;-144.22;100.00;60274.75;6158893;28;20317;-44
2023/01/16 03:08:56;;;;;;;1.13;0.70;;;;;;;-144.22;100.00;60274.75;6158623;28;20302;-44
2023/01/16 03:12:19;;;;;;;3.43;1.07;;;;;;;-144.22;100.00;60274.75;6157412;28;20260;-43
2023/01/16 03:15:30;;;;;;;1.43;0.53;;;;;;;-144.22;100.00;60274.75;6153821;28;20317;-44
2023/01/16 03:18:44;;;;;;;0.73;0.53;;;;;;;-144.22;100.00;60274.75;6158570;28;20247;-43
2023/01/16 03:22:01;;;;;;;1.80;0.57;;;;;;;-144.22;100.00;60274.75;6158182;28;20355;-44
2023/01/16 03:25:21;;;;;;;4.27;1.60;;;;;;;2.27;100.00;60274.75;6157355;28;20243;-44
2023/01/16 03:28:34;;;;;;;2.07;1.53;;;;;;;2.20;100.00;60274.75;6157052;28;20880;-43
2023/01/16 03:31:55;;;;;;;3.47;2.00;;;;;;;-144.22;100.00;60274.75;6175799;28;20296;-44
2023/01/16 03:35:35;;;;;;;2.77;2.20;;;;;;;-144.22;100.00;60274.75;6246930;28;20310;-43
2023/01/16 03:38:42;;;;;;;2.50;1.13;;;;;;;-144.22;100.00;60274.75;6246544;28;20378;-43
2023/01/16 03:41:47;;;;;;;1.00;0.70;;;;;;;188.01;100.00;60274.75;6249559;28;20530;-44
2023/01/16 03:44:59;;;;;;;1.00;0.60;;;;;;;2.06;100.00;60274.75;6242462;28;20236;-44
2023/01/16 03:48:18;;;;;;;0.53;0.53;;;;;;;-144.22;100.00;60274.75;6230189;28;20215;-43
2023/01/16 03:51:29;;;;;;;1.10;0.57;;;;;;;-144.22;100.00;60274.75;6243349;28;20332;-43
2023/01/16 03:54:40;;;;;;;0.67;0.60;;;;;;;-144.22;100.00;60274.75;6244979;28;20241;-43
2023/01/16 03:58:09;;;;;;;0.70;0.50;;;;;;;-144.22;100.00;60274.75;6241722;28;20234;-43
2023/01/16 04:01:14;;;;;;;0.97;0.80;;;;;;;188.01;100.00;60274.75;6239683;28;20429;-44
2023/01/16 04:04:27;;;;;;;4.50;2.87;;;;;;;-144.22;100.00;60274.75;6246525;28;20341;-44
2023/01/16 04:07:43;;;;;;;2.60;1.90;;;;;;;-144.22;100.00;60274.75;6243841;28;20249;-44
2023/01/16 04:10:47;;;;;;;0.93;0.93;;;;;;;1.96;100.00;60274.75;6247169;28;20545;-44
2023/01/16 04:13:53;;;;;;;1.70;1.20;;;;;;;188.01;100.00;60274.75;6246152;28;20415;-44
2023/01/16 04:16:59;;;;;;;2.40;1.70;;;;;;;-144.22;100.00;60274.75;6248665;28;20743;-44
2023/01/16 04:20:03;;;;;;;2.37;1.30;;;;;;;-144.22;100.00;60274.75;6247958;28;20234;-43
2023/01/16 04:23:05;;;;;;;2.00;1.40;;;;;;;21.74;100.00;60274.75;6244405;28;20329;-44
2023/01/16 04:26:07;;;;;;;4.87;2.97;;;;;;;-144.22;100.00;60274.75;6248787;28;20743;-44
2023/01/16 04:29:10;;;;;;;4.47;2.80;;;;;;;-144.22;100.00;60274.75;6245869;28;20236;-44
2023/01/16 04:32:15;;;;;;;3.47;1.90;;;;;;;1.90;100.00;60274.75;6226663;28;20273;-44
2023/01/16 04:35:17;;;;;;;2.87;1.60;;;;;;;-144.22;100.00;60274.75;6242918;28;20317;-44
2023/01/16 04:38:19;;;;;;;9.13;4.77;;;;;;;-144.22;100.00;60274.75;6246627;28;20320;-44
2023/01/16 04:41:36;;;;;;;6.30;4.00;;;;;;;-144.22;100.00;60274.75;6244511;28;20259;-44
2023/01/16 04:44:39;;;;;;;11.07;5.60;;;;;;;-144.22;100.00;60274.75;6243328;28;20263;-44
2023/01/16 04:47:45;;;;;;;8.53;4.60;;;;;;;-144.22;100.00;60274.75;6246137;28;20272;-44
2023/01/16 04:50:49;;;;;;;6.27;3.60;;;;;;;11.36;100.00;60274.75;6245096;28;20600;-43
2023/01/16 04:53:52;;;;;;;8.50;3.87;;;;;;;6.17;100.00;60274.75;6224965;28;20246;-44
2023/01/16 04:56:54;;;;;;;5.37;2.83;;;;;;;-144.22;100.00;60274.75;6246068;28;20823;-44
2023/01/16 04:59:56;;;;;;;4.63;2.80;;;;;;;-144.22;100.00;60274.75;6244364;28;20223;-43
2023/01/16 05:02:59;;;;;;;2.63;1.67;;;;;;;-144.22;100.00;60274.75;6244142;28;20717;-44
2023/01/16 05:06:02;;;;;;;2.63;1.30;;;;;;;-144.22;100.00;60274.75;6249770;28;20833;-45
2023/01/16 05:09:05;;;;;;;1.70;1.13;;;;;;;188.01;100.00;60274.75;6251087;28;20301;-44
2023/01/16 05:12:07;;;;;;;2.80;1.07;;;;;;;1.97;100.00;60274.75;6246862;28;20211;-45
2023/01/16 05:15:10;;;;;;;0.90;0.77;;;;;;;1.97;100.00;60274.75;6248562;28;20245;-43
2023/01/16 05:18:12;;;;;;;0.83;0.70;;;;;;;1.97;100.00;60274.75;6244215;28;20236;-43
2023/01/16 05:21:15;;;;;;;1.20;0.60;;;;;;;1.96;100.00;60274.75;6243015;28;20211;-43
2023/01/16 05:24:17;;;;;;;1.37;0.60;;;;;;;1.97;100.00;60274.75;6244355;28;20214;-43
2023/01/16 05:27:19;;;;;;;0.33;0.30;;;;;;;-144.22;100.00;60274.75;6243521;28;20249;-44
2023/01/16 05:30:21;;;;;;;0.30;0.20;;;;;;;-144.22;100.00;60274.75;6242359;28;20328;-44
2023/01/16 05:33:24;;;;;;;0.30;0.30;;;;;;;-144.22;100.00;60274.75;6229021;28;20233;-44
2023/01/16 05:36:26;;;;;;;0.80;0.30;;;;;;;2.28;100.00;60274.75;6241433;28;20237;-43
2023/01/16 05:39:29;;;;;;;0.43;0.30;;;;;;;188.01;100.00;60274.75;6244691;28;20294;-44
2023/01/16 05:42:31;;;;;;;0.73;0.40;;;;;;;188.01;100.00;60274.75;6243934;28;20279;-44
2023/01/16 05:45:35;;;;;;;0.20;0.20;;;;;;;188.01;100.00;60274.75;6241587;28;20232;-43
2023/01/16 05:48:38;;;;;;;1.37;0.30;;;;;;;188.01;100.00;60274.75;6241981;28;20600;-44
2023/01/16 05:51:40;;;;;;;0.97;0.20;;;;;;;188.01;100.00;60274.75;6243407;28;20233;-44
2023/01/16 05:54:42;;;;;;;1.73;0.30;;;;;;;188.01;100.00;60274.75;6242789;28;20881;-43
2023/01/16 05:57:45;;;;;;;0.47;0.23;;;;;;;-144.22;100.00;60274.75;6245486;28;20584;-43
2023/01/16 06:00:47;;;;;;;0.43;0.17;;;;;;;-144.22;100.00;60274.75;6243086;28;20441;-44
2023/01/16 06:03:50;;;;;;;0.23;0.20;;;;;;;-144.22;100.00;60274.75;6246054;28;20804;-43
2023/01/16 06:06:54;;;;;;;0.30;0.20;;;;;;;-144.22;100.00;60274.75;6239777;28;20248;-44
2023/01/16 06:09:56;;;;;;;0.60;0.27;;;;;;;188.01;100.00;60274.75;6228871;28;20228;-44
2023/01/16 06:13:00;;;;;;;0.20;0.20;;;;;;;3.58;100.00;60274.75;6246787;28;20230;-43
2023/01/16 06:16:02;;;;;;;0.87;0.30;;;;;;;-144.22;100.00;60274.75;6244147;28;20243;-43
2023/01/16 06:19:05;;;;;;;0.20;0.20;;;;;;;-144.22;100.00;60274.75;6247788;28;20632;-44
2023/01/16 06:22:07;;;;;;;0.10;0.10;;;;;;;-144.22;100.00;60274.75;6230627;28;20231;-43
2023/01/16 06:25:09;;;;;;;0.30;0.30;;;;;;;-144.22;100.00;60274.75;6250375;28;20590;-43
2023/01/16 06:28:12;;;;;;;1.20;0.10;;;;;;;-144.22;100.00;60274.75;6247131;28;20651;-44
2023/01/16 06:31:14;;;;;;;0.27;0.17;;;;;;;-144.22;100.00;60274.75;6252658;28;20942;-43
2023/01/16 06:34:17;;;;;;;0.37;0.20;;;;;;;1.71;100.00;60274.75;6245888;28;20247;-44
2023/01/16 06:37:19;;;;;;;0.10;0.10;;;;;;;-144.22;100.00;60274.75;6248371;28;20233;-44
2023/01/16 06:40:21;;;;;;;0.10;0.10;;;;;;;-144.22;100.00;60274.75;6250518;28;20262;-44
2023/01/16 06:43:24;;;;;;;0.20;0.20;;;;;;;188.01;100.00;60274.75;6244443;28;20337;-43
2023/01/16 06:46:27;;;;;;;0.40;0.20;;;;;;;-144.22;100.00;60274.75;6247689;28;20585;-43
2023/01/16 06:49:30;;;;;;;0.30;0.23;;;;;;;-144.22;100.00;60274.75;6247546;28;20855;-44
2023/01/16 06:52:34;;;;;;;0.97;0.10;;;;;;;-144.22;100.00;60274.75;6248447;28;20229;-43
2023/01/16 06:55:37;;;;;;;0.73;0.20;;;;;;;-144.22;100.00;60274.75;6246455;28;20387;-44
2023/01/16 06:58:39;;;;;;;1.00;0.20;;;;;;;-144.22;100.00;60274.75;6246372;28;20236;-44
2023/01/16 07:01:41;;;;;;;0.43;0.10;;;;;;;-144.22;100.00;60274.75;6245489;28;20671;-44
2023/01/16 07:04:44;;;;;;;0.20;0.20;;;;;;;-144.22;100.00;60274.75;6248930;28;20453;-43
2023/01/16 07:07:46;;;;;;;0.30;0.20;;;;;;;-144.22;100.00;60274.75;6246848;28;20241;-43
2023/01/16 07:10:49;;;;;;;0.20;0.10;;;;;;;-144.22;100.00;60274.75;6249626;28;20323;-44
2023/01/16 07:22:34;;;;;;;0.20;0.20;;;;;;;-144.22;100.00;60274.75;6247608;28;20365;-44
2023/01/16 07:24:08;;;;;;;1.00;0.23;;;;;;;-144.22;100.00;60274.75;6243142;28;20235;-44
2023/01/16 07:27:10;;;;;;;0.60;0.40;;;;;;;-144.22;100.00;60274.75;6243231;28;20282;-44
2023/01/16 07:30:13;;;;;;;0.57;0.47;;;;;;;-144.22;100.00;60274.75;6245467;28;20236;-45
2023/01/16 07:33:16;;;;;;;0.20;0.20;;;;;;;21.74;100.00;60274.75;6244346;28;20242;-44
2023/01/16 07:36:18;;;;;;;0.30;0.23;;;;;;;-144.22;100.00;60274.75;6246408;28;20244;-43
2023/01/16 07:39:21;;;;;;;1.10;0.40;;;;;;;-144.22;100.00;60274.75;6245173;28;20240;-43
2023/01/16 07:42:23;;;;;;;1.50;0.20;;;;;;;-144.22;100.00;60274.75;6247988;28;20765;-44
2023/01/16 07:45:25;;;;;;;0.10;0.10;;;;;;;-144.22;100.00;60274.75;6245688;28;20528;-45
2023/01/16 07:48:27;;;;;;;0.73;0.20;;;;;;;-144.22;100.00;60274.75;6245298;28;20341;-44
2023/01/16 07:51:30;;;;;;;0.30;0.20;;;;;;;1.96;100.00;60274.75;6243568;28;20232;-44
2023/01/16 07:54:35;;;;;;;1.23;0.10;;;;;;;1.96;100.00;60274.75;6246687;28;20242;-46
2023/01/16 07:57:38;;;;;;;0.40;0.20;;;;;;;1.97;100.00;60274.75;6242224;28;20660;-45
2023/01/16 08:00:40;;;;;;;0.20;0.10;;;;;;;1.98;100.00;60274.75;6244151;28;20674;-44
2023/01/16 08:03:42;;;;;;;1.27;0.33;;;;;;;2.00;100.00;60274.75;6248016;28;20231;-44
2023/01/16 08:06:45;;;;;;;0.47;0.30;;;;;;;2.02;100.00;60274.75;6245375;28;20237;-44
2023/01/16 08:09:47;;;;;;;0.77;0.20;;;;;;;2.12;100.00;60274.75;6245365;28;20371;-43
2023/01/16 08:12:49;;;;;;;0.60;0.50;;;;;;;2.08;100.00;60274.75;6245800;28;20319;-43
2023/01/16 08:15:51;;;;;;;0.30;0.20;;;;;;;2.12;100.00;60274.75;6246557;28;20232;-44
2023/01/16 08:18:56;;;;;;;1.17;0.10;;;;;;;2.10;100.00;60274.75;6247000;28;20240;-43
2023/01/16 08:21:58;;;;;;;0.60;0.30;;;;;;;2.15;100.00;60274.75;6244032;28;20316;-43
2023/01/16 08:25:01;;;;;;;0.67;0.60;;;;;;;3.58;100.00;60274.75;6246999;28;20239;-44
2023/01/16 08:28:04;;;;;;;0.33;0.20;;;;;;;2.22;100.00;60274.75;6243637;28;20237;-43
2023/01/16 08:31:11;;;;;;;0.57;0.23;;;;;;;-144.22;100.00;60274.75;6245567;28;20429;-44
2023/01/16 08:34:13;;;;;;;0.47;0.23;;;;;;;-144.22;100.00;60274.75;6243414;28;20245;-43
2023/01/16 08:37:15;;;;;;;0.30;0.30;;;;;;;-144.22;100.00;60274.75;6245418;28;20744;-43
2023/01/16 08:40:18;;;;;;;0.20;0.20;;;;;;;-144.22;100.00;60274.75;6242734;28;20324;-43
2023/01/16 08:53:36;;;;;;;0.47;0.20;;;;;;;-144.22;100.00;60274.75;6181468;28;20740;-44
2023/01/16 08:56:42;;;;;;;0.30;0.20;;;;;;;-144.22;100.00;60274.75;6241705;28;20326;-44
2023/01/16 08:59:44;;;;;;;0.70;0.40;;;;;;;-144.22;100.00;60274.75;6240492;28;20251;-44
2023/01/16 09:02:47;;;;;;;0.43;0.30;;;;;;;188.01;100.00;60274.75;6244268;28;20242;-44
2023/01/16 09:05:49;;;;;;;0.57;0.40;;;;;;;-144.22;100.00;60274.75;6246149;28;20367;-46
2023/01/16 09:08:51;;;;;;;0.70;0.57;;;;;;;-144.22;100.00;60274.75;6243576;28;20329;-44
2023/01/16 09:15:16;;;;;;;0.30;0.30;;;;;;;-144.22;100.00;60274.75;6241440;28;20365;-44
2023/01/16 09:18:19;;;;;;;0.73;0.40;;;;;;;177.61;100.00;60274.75;6243380;28;20227;-44
2023/01/16 09:21:23;;;;;;;0.83;0.50;;;;;;;188.01;100.00;60274.75;6240968;28;20301;-44
2023/01/16 09:24:26;;;;;;;1.20;0.50;;;;;;;188.01;100.00;60274.75;6239298;28;20233;-44
2023/01/16 09:27:28;;;;;;;0.50;0.40;;;;;;;6.17;100.00;60274.75;6244610;28;20295;-44
2023/01/16 09:30:30;;;;;;;1.27;0.40;;;;;;;188.01;100.00;60274.75;6242835;28;20237;-44
2023/01/16 09:33:32;;;;;;;0.67;0.47;;;;;;;11.36;100.00;60274.75;6242094;28;20670;-44
2023/01/16 09:36:37;;;;;;;0.30;0.30;;;;;;;-144.22;100.00;60274.75;6241079;28;20225;-44
2023/01/16 09:39:39;;;;;;;0.63;0.53;;;;;;;6.17;100.00;60274.75;6242537;28;20518;-44
2023/01/16 09:46:16;;;;;;;2.27;0.60;;;;;;;-144.22;100.00;60274.75;6242487;28;20363;-44
2023/01/16 09:49:25;;;;;;;1.23;0.50;;;;;;;177.61;100.00;60274.75;6243093;28;20665;-45
2023/01/16 09:59:29;;;;;;;0.50;0.40;;;;;;;-144.22;100.00;60274.75;6243119;28;20511;-43
2023/01/16 10:02:33;;;;;;;0.60;0.50;;;;;;;3.89;100.00;60274.75;6244726;28;20261;-44
2023/01/16 10:06:05;;;;;;;1.33;0.63;;;;;;;-144.22;100.00;60274.75;6243757;28;20234;-44
2023/01/16 10:09:33;;;;;;;1.37;0.50;;;;;;;4.11;100.00;60274.75;6245759;28;20230;-45
2023/01/16 10:12:39;;;;;;;0.70;0.50;;;;;;;-144.22;100.00;60274.75;6238284;28;20233;-44
2023/01/16 10:16:12;;;;;;;1.10;0.37;;;;;;;4.62;100.00;60274.75;6241953;28;20235;-44
2023/01/16 10:19:31;;;;;;;0.90;0.40;;;;;;;4.74;100.00;60274.75;6221373;28;20266;-45
2023/01/16 10:22:45;;;;;;;0.40;0.27;;;;;;;-144.22;100.00;60274.75;6237895;28;20766;-45
2023/01/16 10:26:08;;;;;;;0.57;0.50;;;;;;;6.17;100.00;60274.75;6225576;28;20418;-44
2023/01/16 10:29:28;;;;;;;0.40;0.40;;;;;;;-144.22;100.00;60274.75;6226758;28;20239;-45
2023/01/16 10:32:57;;;;;;;0.27;0.20;;;;;;;-144.22;100.00;60274.75;6243293;28;20227;-45
2023/01/16 10:36:02;;;;;;;0.57;0.37;;;;;;;-144.22;100.00;60274.75;6239404;28;20238;-45
2023/01/16 10:39:05;;;;;;;0.40;0.40;;;;;;;-144.22;100.00;60274.75;6239638;28;20550;-44
2023/01/16 10:52:19;;;;;;;0.50;0.40;;;;;;;21.74;100.00;60274.75;6241359;28;20810;-43
2023/01/16 10:55:22;;;;;;;0.50;0.40;;;;;;;-144.22;100.00;60274.75;6242488;28;20238;-45
2023/01/16 10:58:24;;;;;;;1.30;0.57;;;;;;;-144.22;100.00;60274.75;6241128;28;20410;-44
2023/01/16 11:01:27;;;;;;;0.70;0.50;;;;;;;21.74;100.00;60274.75;6241951;28;20672;-43
2023/01/16 11:04:35;;;;;;;1.23;0.40;;;;;;;21.74;100.00;60274.75;6244988;28;20599;-44
2023/01/16 11:07:37;;;;;;;1.10;0.60;;;;;;;188.01;100.00;60274.75;6247303;28;20250;-43
2023/01/16 11:10:43;;;;;;;1.53;0.80;;;;;;;188.01;100.00;60274.75;6248025;28;20240;-44
2023/01/16 11:20:50;;;;;;;0.70;0.70;;;;;;;-144.22;100.00;60274.75;6246878;28;20226;-44
2023/01/16 11:24:03;;;;;;;1.60;0.97;;;;;;;-144.22;100.00;60274.75;6244722;28;20647;-44
2023/01/16 11:27:19;;;;;;;1.50;1.00;;;;;;;-144.22;100.00;60274.75;6225783;28;20246;-44
2023/01/16 11:30:28;;;;;;;0.87;0.60;;;;;;;-144.22;100.00;60274.75;6245746;28;20227;-45
2023/01/16 11:33:43;;;;;;;1.00;0.90;;;;;;;3.53;100.00;60274.75;6245922;28;20516;-44
2023/01/16 11:36:45;;;;;;;1.73;0.90;;;;;;;3.54;100.00;60274.75;6221842;28;20224;-43
2023/01/16 11:39:51;;;;;;;1.83;0.87;;;;;;;188.01;100.00;60274.75;6221803;28;20428;-44
2023/01/16 11:46:29;;;;;;;3.17;1.40;;;;;;;3.43;100.00;60274.75;6218914;28;20326;-43
2023/01/16 11:49:52;;;;;;;1.50;1.10;;;;;;;3.39;100.00;60274.75;6219887;28;20242;-43
2023/01/16 11:52:54;;;;;;;1.47;1.37;;;;;;;3.34;100.00;60274.75;6221620;28;20319;-44
2023/01/16 11:56:10;;;;;;;1.87;1.50;;;;;;;3.27;100.00;60274.75;6218776;28;20243;-44
2023/01/16 11:59:30;;;;;;;1.60;1.40;;;;;;;-144.22;100.00;60274.75;6216146;28;20345;-44
2023/01/16 12:02:44;;;;;;;3.33;1.40;;;;;;;-144.22;100.00;60274.75;6214592;28;20278;-43
2023/01/16 12:06:16;;;;;;;1.53;1.43;;;;;;;-144.22;100.00;60274.75;6219621;28;20323;-44
2023/01/16 12:09:27;;;;;;;1.80;1.60;;;;;;;3.45;100.00;60274.75;6220685;28;20352;-43
2023/01/16 12:15:57;;;;;;;1.57;1.43;;;;;;;-144.22;100.00;60274.75;6220333;28;20383;-44
2023/01/16 12:19:27;;;;;;;3.53;1.70;;;;;;;-144.22;100.00;60274.75;6220116;28;20227;-44
2023/01/16 12:23:06;;;;;;;1.63;1.27;;;;;;;-144.22;100.00;60274.75;6216325;28;20437;-44
2023/01/16 12:26:28;;;;;;;2.10;1.40;;;;;;;-144.22;100.00;60274.75;6220465;28;20580;-44
2023/01/16 12:30:10;;;;;;;1.57;1.33;;;;;;;21.74;100.00;60274.75;6216571;28;20247;-44
2023/01/16 12:33:41;;;;;;;1.53;1.30;;;;;;;11.36;100.00;60274.75;6220403;28;20442;-44
2023/01/16 12:37:01;;;;;;;1.40;1.23;;;;;;;188.01;100.00;60274.75;6242679;28;20454;-43
2023/01/16 12:40:50;;;;;;;1.10;1.00;;;;;;;-144.22;100.00;60274.75;6242458;28;20910;-44
2023/01/16 12:44:11;;;;;;;1.20;1.10;;;;;;;-144.22;100.00;60274.75;6215949;28;20241;-44
2023/01/16 12:47:44;;;;;;;1.37;0.87;;;;;;;3.58;100.00;60274.75;6243663;28;20248;-44
2023/01/16 12:51:14;;;;;;;1.47;1.00;;;;;;;-144.22;100.00;60274.75;6240596;28;20508;-44
2023/01/16 12:54:54;;;;;;;1.93;1.30;;;;;;;-144.22;100.00;60274.75;6240315;28;20318;-44
2023/01/16 12:58:25;;;;;;;1.40;1.13;;;;;;;-144.22;100.00;60274.75;6243308;28;20458;-44
2023/01/16 13:01:50;;;;;;;1.47;0.97;;;;;;;-144.22;100.00;60274.75;6241430;28;20242;-45
2023/01/16 13:05:00;;;;;;;1.07;0.80;;;;;;;-144.22;100.00;60274.75;6248370;28;20476;-48
2023/01/16 13:08:11;;;;;;;1.33;0.80;;;;;;;-144.22;100.00;60274.75;6244256;28;20431;-44
2023/01/16 13:15:07;;;;;;;1.07;0.80;;;;;;;3.27;100.00;60274.75;6239392;28;20239;-44
2023/01/16 13:18:23;;;;;;;0.97;0.80;;;;;;;3.28;100.00;60274.75;6240645;28;20311;-43
2023/01/16 13:21:29;;;;;;;0.40;0.40;;;;;;;3.15;100.00;60274.75;6245568;28;20536;-43
2023/01/16 13:24:53;;;;;;;0.77;0.50;;;;;;;-144.22;100.00;60274.75;6239275;28;20416;-44
2023/01/16 13:28:00;;;;;;;1.03;0.70;;;;;;;-144.22;100.00;60274.75;6237702;28;20552;-45
2023/01/16 13:31:14;;;;;;;1.47;0.80;;;;;;;-144.22;100.00;60274.75;6243526;28;20433;-44
2023/01/16 13:34:29;;;;;;;0.70;0.60;;;;;;;11.36;100.00;60274.75;6242648;28;20241;-44
2023/01/16 13:38:05;;;;;;;1.83;0.70;;;;;;;11.36;100.00;60274.75;6243450;28;20726;-44
2023/01/16 13:41:43;;;;;;;2.60;1.00;;;;;;;-144.22;100.00;60274.75;6239038;28;20235;-44
2023/01/16 13:48:17;;;;;;;1.00;0.90;;;;;;;188.01;100.00;60274.75;6113830;28;20358;-43
2023/01/16 13:51:23;;;;;;;0.73;0.73;;;;;;;2.94;100.00;60274.75;6119572;28;20642;-43
2023/01/16 13:54:36;;;;;;;0.70;0.70;;;;;;;-144.22;100.00;60274.75;6117706;28;20244;-45
2023/01/16 13:57:39;;;;;;;1.20;0.80;;;;;;;-144.22;100.00;60274.75;6117495;28;20596;-44
2023/01/16 14:00:43;;;;;;;1.33;0.90;;;;;;;-144.22;100.00;60274.75;6115831;28;20602;-44
2023/01/16 14:04:11;;;;;;;1.87;1.00;;;;;;;-144.22;100.00;60274.75;6122363;28;20236;-44
2023/01/16 14:11:34;;;;;;;2.80;0.70;;;;;;;-144.22;100.00;60274.75;6121309;28;20268;-44
2023/01/16 14:18:13;;;;;;;0.87;0.80;;;;;;;188.01;100.00;60274.75;6115760;28;20249;-44
2023/01/16 14:21:21;;;;;;;1.10;1.00;;;;;;;177.61;100.00;60274.75;6191894;28;20256;-44
2023/01/16 14:24:23;;;;;;;2.97;1.23;;;;;;;21.74;100.00;60274.75;6239840;28;20226;-44
2023/01/16 14:27:32;;;;;;;1.17;0.97;;;;;;;188.01;100.00;60274.75;6241387;28;20354;-43
2023/01/16 14:30:35;;;;;;;4.67;1.23;;;;;;;-144.22;100.00;60274.75;6226334;28;20552;-43
2023/01/16 14:33:38;;;;;;;2.97;1.10;;;;;;;-144.22;100.00;60274.75;6239669;28;20309;-44
2023/01/16 14:36:46;;;;;;;1.27;1.00;;;;;;;-144.22;100.00;60274.75;6241727;28;20332;-44
2023/01/16 14:39:56;;;;;;;1.13;0.90;;;;;;;-144.22;100.00;60274.75;6234078;28;20314;-44
2023/01/16 14:56:44;;;;;;;2.57;1.37;;;;;;;-144.22;100.00;60274.75;6246336;28;20253;-44
2023/01/16 15:00:13;;;;;;;1.20;1.10;;;;;;;-144.22;100.00;60274.75;6249386;28;20328;-44
2023/01/16 15:03:22;;;;;;;2.00;1.40;;;;;;;-144.22;100.00;60274.75;6244502;28;20233;-43
2023/01/16 15:06:35;;;;;;;2.10;1.33;;;;;;;2.26;100.00;60274.75;6246772;28;20765;-44
2023/01/16 15:09:39;;;;;;;1.83;1.00;;;;;;;188.01;100.00;60274.75;6252358;28;20256;-44
2023/01/16 15:12:44;;;;;;;1.67;1.30;;;;;;;2.23;100.00;60274.75;6246010;28;20328;-43
2023/01/16 15:15:52;;;;;;;2.50;1.30;;;;;;;188.01;100.00;60274.75;6246330;28;20241;-44
2023/01/16 15:22:19;;;;;;;1.13;1.03;;;;;;;2.05;100.00;60274.75;6227911;28;20240;-44
2023/01/16 15:25:39;;;;;;;1.60;1.50;;;;;;;1.98;100.00;60274.75;6247375;28;20229;-44
2023/01/16 15:29:12;;;;;;;2.20;1.10;;;;;;;-144.22;100.00;60274.75;6244190;28;20245;-44
2023/01/16 15:32:21;;;;;;;1.60;1.20;;;;;;;-144.22;100.00;60274.75;6243958;28;20447;-44
2023/01/16 15:35:24;;;;;;;1.47;1.20;;;;;;;-144.22;100.00;60274.75;6246006;28;20801;-44
2023/01/16 15:38:36;;;;;;;1.10;1.00;;;;;;;-144.22;100.00;60274.75;6245924;28;20215;-44
2023/01/16 15:48:58;;;;;;;0.90;0.90;;;;;;;-144.22;100.00;60274.75;6247233;28;20847;-45
2023/01/16 15:52:17;;;;;;;1.50;1.33;;;;;;;-144.22;100.00;60274.75;6248111;28;20536;-43
2023/01/16 15:55:23;;;;;;;1.47;1.20;;;;;;;-144.22;100.00;60274.75;6247360;28;20666;-44
2023/01/16 15:58:25;;;;;;;1.40;1.30;;;;;;;2.28;100.00;60274.75;6246675;28;20238;-43
2023/01/16 16:01:33;;;;;;;1.27;1.17;;;;;;;-144.22;100.00;60274.75;6244733;28;20757;-45
2023/01/16 16:04:36;;;;;;;1.87;1.67;;;;;;;-144.22;100.00;60274.75;6236112;28;20851;-45